Time;durP1;ratioP1;P1;durP2;ratioP2;P2;SDS_P1;SDS_P2;PMS_P1;PMS_P2;Temp;Humidity;BMP_temperature;BMP_pressure;BME280_temperature;BME280_humidity;BME280_pressure;Samples;Min_cycle;Max_cycle;Signal;HPM_P1;HPM_P2
2023/07/07 00:00:22;;;;;;;0.40;0.20;;;;;;;14.06;80.04;100518.44;5035466;28;20466;-48
2023/07/07 00:02:49;;;;;;;0.40;0.20;;;;;;;14.07;80.59;100520.19;5040854;28;20477;-47
2023/07/07 00:05:15;;;;;;;0.40;0.20;;;;;;;13.90;80.76;100520.84;5032707;28;20479;-48
2023/07/07 00:07:42;;;;;;;0.40;0.20;;;;;;;13.98;80.25;100526.78;5046526;28;20489;-48
2023/07/07 00:10:08;;;;;;;0.40;0.20;;;;;;;13.85;81.25;100523.72;5042953;28;20507;-47
2023/07/07 00:12:36;;;;;;;0.40;0.20;;;;;;;13.74;80.98;100523.25;5046349;28;20495;-47
2023/07/07 00:15:02;;;;;;;0.40;0.20;;;;;;;13.79;81.55;100521.25;5041384;28;20467;-47
2023/07/07 00:17:29;;;;;;;0.40;0.20;;;;;;;13.65;81.41;100534.25;5034972;28;20864;-47
2023/07/07 00:19:55;;;;;;;0.40;0.20;;;;;;;13.52;81.87;100530.28;5034598;28;20492;-47
2023/07/07 00:22:22;;;;;;;0.40;0.20;;;;;;;13.32;82.25;100528.38;5048172;28;20486;-48
2023/07/07 00:24:48;;;;;;;0.40;0.20;;;;;;;13.17;83.64;100527.09;5032765;28;20468;-47
2023/07/07 00:27:15;;;;;;;0.40;0.20;;;;;;;13.22;83.74;100533.16;5047243;28;20484;-47
2023/07/07 00:29:41;;;;;;;0.40;0.20;;;;;;;13.16;83.71;100532.47;5043415;28;20518;-48
2023/07/07 00:32:08;;;;;;;0.40;0.20;;;;;;;12.91;84.54;100532.44;5039551;28;20494;-48
2023/07/07 00:34:34;;;;;;;0.40;0.20;;;;;;;13.02;84.68;100540.97;5046858;28;20466;-50
2023/07/07 00:37:01;;;;;;;0.40;0.20;;;;;;;13.07;84.53;100531.00;5043618;28;20930;-48
2023/07/07 00:39:27;;;;;;;0.40;0.20;;;;;;;12.95;85.07;100536.75;5048737;28;20486;-48
2023/07/07 00:41:54;;;;;;;0.40;0.20;;;;;;;13.02;84.65;100533.84;5039903;28;20513;-49
2023/07/07 00:44:20;;;;;;;0.40;0.20;;;;;;;13.02;85.04;100532.97;5046424;28;20490;-48
2023/07/07 00:46:46;;;;;;;0.40;0.20;;;;;;;13.26;84.28;100525.91;5037599;28;20473;-48
2023/07/07 00:49:19;;;;;;;0.40;0.20;;;;;;;13.37;84.46;100529.06;5042901;28;20493;-49
2023/07/07 00:52:01;;;;;;;0.40;0.20;;;;;;;13.16;85.22;100530.69;5042191;28;20525;-48
2023/07/07 00:54:32;;;;;;;0.40;0.20;;;;;;;13.24;84.87;100536.63;5028728;28;20458;-48
2023/07/07 00:57:00;;;;;;;0.40;0.20;;;;;;;12.95;85.94;100529.63;5044097;28;20483;-48
2023/07/07 00:59:37;;;;;;;0.40;0.20;;;;;;;12.99;85.56;100531.25;5039936;28;20856;-48
2023/07/07 01:02:24;;;;;;;0.40;0.20;;;;;;;13.24;85.12;100531.28;5039984;28;20539;-48
2023/07/07 01:04:55;;;;;;;0.40;0.20;;;;;;;13.19;84.60;100535.94;5047780;28;20639;-48
2023/07/07 01:07:30;;;;;;;0.40;0.20;;;;;;;12.89;85.84;100537.84;5026586;28;20545;-48
2023/07/07 01:09:56;;;;;;;0.40;0.20;;;;;;;12.85;86.37;100535.31;5043570;28;20479;-49
2023/07/07 01:12:23;;;;;;;0.40;0.20;;;;;;;12.89;85.55;100532.50;5039051;28;20530;-49
2023/07/07 01:14:51;;;;;;;0.40;0.20;;;;;;;12.76;86.21;100541.84;5042021;28;20475;-48
2023/07/07 01:17:40;;;;;;;0.40;0.20;;;;;;;12.83;86.41;100535.38;5053275;28;20964;-49
2023/07/07 01:20:32;;;;;;;0.40;0.20;;;;;;;12.71;86.90;100536.66;5036375;28;20468;-48
2023/07/07 01:23:24;;;;;;;0.40;0.20;;;;;;;12.81;86.20;100534.56;5041902;28;21008;-48
2023/07/07 01:26:26;;;;;;;0.40;0.20;;;;;;;12.72;86.66;100543.72;5033874;28;20554;-48
2023/07/07 01:29:03;;;;;;;0.40;0.20;;;;;;;12.56;87.10;100545.16;5016526;28;20485;-48
2023/07/07 01:31:44;;;;;;;0.40;0.20;;;;;;;12.45;87.33;100541.97;5036554;28;20495;-48
2023/07/07 01:34:13;;;;;;;0.40;0.20;;;;;;;12.50;87.28;100541.84;5043169;28;20513;-48
2023/07/07 01:36:39;;;;;;;0.40;0.20;;;;;;;12.25;87.90;100537.28;5043070;28;20473;-49
2023/07/07 01:39:06;;;;;;;0.40;0.20;;;;;;;12.20;88.20;100536.56;5045405;28;20512;-49
2023/07/07 01:41:44;;;;;;;0.40;0.20;;;;;;;12.11;88.63;100537.72;5040620;28;20497;-48
2023/07/07 01:44:37;;;;;;;0.40;0.20;;;;;;;12.03;88.50;100546.84;5042712;28;20471;-48
2023/07/07 01:47:20;;;;;;;0.40;0.20;;;;;;;12.09;88.69;100538.69;5035268;28;20459;-48
2023/07/07 01:49:49;;;;;;;0.40;0.20;;;;;;;11.94;88.71;100545.34;5042363;28;21042;-48
2023/07/07 01:52:24;;;;;;;0.40;0.20;;;;;;;11.99;88.56;100547.88;5037650;28;20496;-48
2023/07/07 01:55:18;;;;;;;0.40;0.20;;;;;;;12.07;87.98;100543.19;5038864;28;20469;-48
2023/07/07 01:57:48;;;;;;;0.40;0.20;;;;;;;11.94;88.63;100545.34;5034839;28;20893;-48
2023/07/07 02:00:17;;;;;;;0.40;0.20;;;;;;;11.90;89.08;100543.66;5034003;28;20473;-48
2023/07/07 02:02:43;;;;;;;0.40;0.20;;;;;;;11.83;89.29;100544.78;5041427;28;20467;-48
2023/07/07 02:05:11;;;;;;;0.40;0.20;;;;;;;11.78;89.31;100541.34;5042841;28;20469;-48
2023/07/07 02:07:38;;;;;;;0.50;0.50;;;;;;;11.82;89.65;100551.03;5038910;28;20466;-50
2023/07/07 02:10:05;;;;;;;0.40;0.20;;;;;;;11.83;89.86;100547.44;5039788;28;20468;-47
2023/07/07 02:12:32;;;;;;;0.40;0.20;;;;;;;11.70;90.45;100554.03;5036709;28;20866;-49
2023/07/07 02:14:58;;;;;;;0.40;0.20;;;;;;;11.65;91.24;100550.59;5038866;28;20551;-48
2023/07/07 02:17:28;;;;;;;0.40;0.20;;;;;;;11.62;91.57;100548.91;5052082;28;20471;-50
2023/07/07 02:19:59;;;;;;;0.40;0.20;;;;;;;11.76;90.58;100551.16;5032064;28;20562;-47
2023/07/07 02:22:25;;;;;;;0.40;0.20;;;;;;;11.73;91.63;100562.78;5045606;28;20470;-48
2023/07/07 02:24:52;;;;;;;0.40;0.20;;;;;;;11.61;91.37;100562.25;5030347;28;20831;-49
2023/07/07 02:27:19;;;;;;;0.40;0.20;;;;;;;11.68;91.87;100563.84;5037046;28;20573;-48
2023/07/07 02:29:45;;;;;;;0.40;0.20;;;;;;;11.47;92.03;100562.66;5041921;23;20534;-54
2023/07/07 02:32:12;;;;;;;0.40;0.20;;;;;;;11.62;92.22;100562.22;5033393;28;20498;-55
2023/07/07 02:34:40;;;;;;;0.40;0.20;;;;;;;11.63;91.32;100560.44;5038743;28;20467;-54
2023/07/07 02:37:12;;;;;;;0.40;0.20;;;;;;;11.56;91.21;100565.06;5032989;28;20485;-54
2023/07/07 02:39:40;;;;;;;0.40;0.20;;;;;;;11.60;91.24;100560.53;5029408;28;20483;-55
2023/07/07 02:42:07;;;;;;;0.40;0.20;;;;;;;11.63;91.58;100566.63;5026459;28;20491;-55
2023/07/07 02:44:33;;;;;;;0.40;0.20;;;;;;;11.75;91.24;100568.06;5027447;28;20550;-54
2023/07/07 02:47:00;;;;;;;0.40;0.20;;;;;;;11.83;90.67;100558.97;5025080;28;20471;-54
2023/07/07 02:49:26;;;;;;;0.40;0.20;;;;;;;11.70;90.96;100562.88;5026997;28;20530;-54
2023/07/07 02:51:53;;;;;;;0.40;0.30;;;;;;;11.86;91.03;100564.22;5020410;28;20497;-55
2023/07/07 02:54:19;;;;;;;0.40;0.20;;;;;;;11.89;90.58;100563.25;5010198;28;20521;-54
2023/07/07 02:56:46;;;;;;;0.40;0.20;;;;;;;12.01;90.24;100572.66;5028523;28;20499;-55
2023/07/07 02:59:13;;;;;;;0.40;0.20;;;;;;;11.80;90.50;100568.84;5023987;28;20531;-54
2023/07/07 03:01:44;;;;;;;0.40;0.20;;;;;;;11.73;91.20;100567.25;5026056;28;20584;-55
2023/07/07 03:04:11;;;;;;;0.40;0.20;;;;;;;11.66;91.56;100568.34;5030817;28;20514;-54
2023/07/07 03:06:39;;;;;;;0.40;0.20;;;;;;;11.54;92.14;100567.78;5023817;28;20479;-55
2023/07/07 03:09:06;;;;;;;0.40;0.20;;;;;;;11.45;92.02;100567.16;5028699;28;20586;-55
2023/07/07 03:11:33;;;;;;;0.40;0.20;;;;;;;11.34;92.29;100578.09;5021134;28;20595;-54
2023/07/07 03:13:59;;;;;;;0.40;0.20;;;;;;;11.26;92.62;100578.31;5027164;28;20471;-54
2023/07/07 03:16:32;;;;;;;0.40;0.20;;;;;;;11.10;92.46;100581.38;5026350;28;20470;-54
2023/07/07 03:19:01;;;;;;;0.40;0.20;;;;;;;11.13;93.03;100584.00;5028241;28;20891;-55
2023/07/07 03:21:28;;;;;;;0.40;0.20;;;;;;;10.72;94.45;100577.94;5010402;28;20463;-54
2023/07/07 03:23:56;;;;;;;0.40;0.20;;;;;;;10.90;93.71;100568.63;5027087;28;20471;-55
2023/07/07 03:26:25;;;;;;;0.40;0.20;;;;;;;10.84;93.39;100574.09;5022311;28;20573;-55
2023/07/07 03:28:52;;;;;;;0.40;0.20;;;;;;;10.93;93.76;100584.47;5025843;28;20488;-55
2023/07/07 03:31:25;;;;;;;0.40;0.20;;;;;;;11.10;92.88;100587.63;5009853;28;20467;-55
2023/07/07 03:33:55;;;;;;;0.40;0.20;;;;;;;11.01;92.73;100582.50;5026185;28;20463;-55
2023/07/07 03:36:27;;;;;;;0.40;0.20;;;;;;;11.03;92.82;100586.00;5019557;28;20467;-55
2023/07/07 03:38:55;;;;;;;0.40;0.20;;;;;;;10.98;93.51;100580.81;5028751;28;20519;-55
2023/07/07 03:41:25;;;;;;;0.40;0.20;;;;;;;11.07;92.39;100574.38;5025808;28;20467;-54
2023/07/07 03:43:53;;;;;;;0.40;0.20;;;;;;;11.07;92.53;100574.38;5027003;28;20844;-55
2023/07/07 03:46:22;;;;;;;0.40;0.20;;;;;;;10.94;92.98;100578.25;5016951;28;20980;-55
2023/07/07 03:48:50;;;;;;;0.40;0.20;;;;;;;11.06;93.56;100590.38;5026877;28;20624;-55
2023/07/07 03:51:18;;;;;;;0.40;0.20;;;;;;;11.00;93.56;100591.41;5023392;28;20498;-55
2023/07/07 03:53:44;;;;;;;0.40;0.20;;;;;;;11.00;94.01;100595.88;5022913;28;20555;-54
2023/07/07 03:56:11;;;;;;;0.40;0.20;;;;;;;10.98;93.79;100590.59;5027887;28;20525;-55
2023/07/07 03:58:37;;;;;;;0.40;0.20;;;;;;;10.96;94.00;100587.97;5021845;28;20981;-55
2023/07/07 04:01:06;;;;;;;0.40;0.20;;;;;;;11.05;93.96;100591.28;5029656;28;20470;-55
2023/07/07 04:03:33;;;;;;;0.40;0.20;;;;;;;11.08;93.45;100589.41;5026233;28;20471;-54
2023/07/07 04:06:00;;;;;;;0.40;0.20;;;;;;;11.15;94.12;100593.69;5028222;28;20502;-55
2023/07/07 04:08:27;;;;;;;0.40;0.20;;;;;;;11.27;93.48;100593.34;5025305;28;20488;-55
2023/07/07 04:11:01;;;;;;;0.40;0.20;;;;;;;11.47;93.41;100586.59;5027195;28;20467;-55
2023/07/07 04:13:30;;;;;;;0.40;0.20;;;;;;;11.34;93.55;100593.19;5017982;28;20499;-55
2023/07/07 04:16:01;;;;;;;0.40;0.20;;;;;;;11.56;93.99;100587.25;5025891;28;20836;-55
2023/07/07 04:18:29;;;;;;;0.40;0.30;;;;;;;12.48;89.38;100595.22;5028398;28;20895;-55
2023/07/07 04:20:57;;;;;;;0.40;0.20;;;;;;;12.14;91.03;100596.22;5016952;28;20953;-55
2023/07/07 04:23:24;;;;;;;0.40;0.20;;;;;;;12.05;91.57;100596.50;5027366;28;20463;-55
2023/07/07 04:25:51;;;;;;;0.40;0.20;;;;;;;12.01;92.55;100599.31;5020624;28;20883;-55
2023/07/07 04:28:17;;;;;;;0.40;0.20;;;;;;;12.19;91.40;100597.88;5025814;28;20505;-55
2023/07/07 04:30:44;;;;;;;0.40;0.20;;;;;;;12.07;92.36;100602.69;5029102;28;20491;-55
2023/07/07 04:33:11;;;;;;;0.40;0.20;;;;;;;12.14;92.69;100603.34;5023669;28;20496;-55
2023/07/07 04:35:37;;;;;;;0.40;0.20;;;;;;;12.81;91.14;100603.03;5028275;28;20476;-55
2023/07/07 04:38:04;;;;;;;0.40;0.20;;;;;;;13.77;87.03;100603.25;5029312;28;20463;-55
2023/07/07 04:40:31;;;;;;;0.40;0.20;;;;;;;14.56;82.97;100603.88;5024910;28;20463;-55
2023/07/07 04:42:58;;;;;;;0.40;0.20;;;;;;;15.30;79.97;100606.09;5028757;28;20464;-55
2023/07/07 04:45:24;;;;;;;0.40;0.20;;;;;;;16.00;76.95;100602.13;5027189;28;20468;-55
2023/07/07 04:47:51;;;;;;;0.40;0.20;;;;;;;16.43;74.67;100610.84;5029128;28;20499;-55
2023/07/07 04:50:17;;;;;;;0.40;0.20;;;;;;;16.59;73.50;100612.75;5024949;28;20468;-56
2023/07/07 04:52:44;;;;;;;0.40;0.20;;;;;;;16.98;72.29;100616.25;5026761;28;20527;-55
2023/07/07 04:55:10;;;;;;;0.40;0.20;;;;;;;17.21;71.14;100607.03;5027102;28;20551;-55
2023/07/07 04:57:39;;;;;;;0.40;0.20;;;;;;;17.24;70.73;100617.63;5030651;28;20476;-55
2023/07/07 05:00:08;;;;;;;0.40;0.20;;;;;;;17.73;68.65;100607.94;5024723;28;20491;-55
2023/07/07 05:02:35;;;;;;;0.40;0.20;;;;;;;17.86;67.59;100611.69;5029138;28;20466;-55
2023/07/07 05:05:02;;;;;;;0.40;0.20;;;;;;;18.04;66.38;100616.09;5022478;28;20468;-55
2023/07/07 05:07:29;;;;;;;0.40;0.20;;;;;;;18.22;65.50;100618.72;5023347;28;20907;-55
2023/07/07 05:09:56;;;;;;;0.40;0.20;;;;;;;18.25;65.07;100619.44;5028262;28;20923;-56
2023/07/07 05:12:22;;;;;;;0.40;0.20;;;;;;;18.33;64.39;100622.56;5026658;28;20506;-55
2023/07/07 05:14:52;;;;;;;0.43;0.20;;;;;;;18.44;64.04;100624.66;5025725;28;20496;-55
2023/07/07 05:17:18;;;;;;;0.43;0.20;;;;;;;18.39;64.21;100621.38;5026599;28;20471;-55
2023/07/07 05:19:45;;;;;;;0.40;0.20;;;;;;;18.22;64.82;100616.88;5024118;28;20527;-55
2023/07/07 05:22:11;;;;;;;0.50;0.20;;;;;;;18.21;65.80;100625.06;5027439;28;20464;-55
2023/07/07 05:24:38;;;;;;;0.40;0.20;;;;;;;18.96;63.64;100628.94;5028781;28;20471;-55
2023/07/07 05:27:05;;;;;;;0.40;0.20;;;;;;;19.06;63.46;100630.16;5030664;28;20506;-55
2023/07/07 05:29:31;;;;;;;0.40;0.20;;;;;;;18.58;64.80;100634.66;5021915;28;20491;-55
2023/07/07 05:31:58;;;;;;;0.40;0.20;;;;;;;19.40;62.19;100627.19;5023078;28;20464;-54
2023/07/07 05:34:25;;;;;;;0.40;0.20;;;;;;;19.37;62.45;100629.22;5017463;28;21023;-54
2023/07/07 05:36:51;;;;;;;0.50;0.20;;;;;;;19.28;62.17;100627.94;5028324;28;20468;-55
2023/07/07 05:39:17;;;;;;;0.47;0.20;;;;;;;19.48;61.65;100630.31;5030577;28;20490;-55
2023/07/07 05:41:44;;;;;;;0.40;0.20;;;;;;;19.70;60.82;100627.19;5027557;28;20529;-55
2023/07/07 05:44:10;;;;;;;0.40;0.20;;;;;;;20.07;59.22;100628.50;5028244;28;20988;-55
2023/07/07 05:46:37;;;;;;;0.40;0.20;;;;;;;20.31;58.56;100630.63;5025962;28;21022;-54
2023/07/07 05:49:04;;;;;;;0.50;0.20;;;;;;;20.47;57.96;100634.13;5025979;28;20488;-55
2023/07/07 05:51:30;;;;;;;0.50;0.20;;;;;;;20.35;59.14;100634.88;5024000;28;20501;-55
2023/07/07 05:53:57;;;;;;;0.50;0.27;;;;;;;19.97;59.47;100627.34;5024008;28;20523;-55
2023/07/07 05:56:24;;;;;;;0.50;0.20;;;;;;;20.03;58.60;100631.50;5030922;28;20463;-55
2023/07/07 05:58:53;;;;;;;0.40;0.20;;;;;;;20.53;57.26;100624.75;5022378;28;20488;-55
2023/07/07 06:01:19;;;;;;;0.50;0.20;;;;;;;20.27;58.86;100629.94;5019050;28;20471;-55
2023/07/07 06:03:46;;;;;;;0.50;0.20;;;;;;;20.44;58.90;100633.47;5028888;28;20987;-55
2023/07/07 06:06:13;;;;;;;0.50;0.20;;;;;;;20.53;57.51;100619.34;5028255;28;20491;-55
2023/07/07 06:08:40;;;;;;;0.63;0.63;;;;;;;20.68;56.23;100615.63;5026466;28;20487;-55
2023/07/07 06:11:07;;;;;;;0.50;0.20;;;;;;;20.72;55.97;100611.78;5025207;28;20468;-55
2023/07/07 06:13:33;;;;;;;0.40;0.20;;;;;;;21.05;55.66;100622.19;5023941;28;21015;-55
2023/07/07 06:16:02;;;;;;;0.40;0.20;;;;;;;21.21;54.34;100622.03;5026283;28;20467;-55
2023/07/07 06:18:28;;;;;;;0.40;0.20;;;;;;;21.29;54.67;100625.13;5029203;28;21000;-55
2023/07/07 06:20:58;;;;;;;0.40;0.20;;;;;;;21.81;53.69;100613.44;5019872;28;20906;-56
2023/07/07 06:23:26;;;;;;;0.50;0.20;;;;;;;21.10;53.82;100611.06;5027660;28;20459;-55
2023/07/07 06:25:53;;;;;;;0.43;0.20;;;;;;;21.39;54.24;100618.13;5029633;28;20472;-55
2023/07/07 06:28:19;;;;;;;0.50;0.20;;;;;;;21.52;55.04;100618.16;5010377;28;20578;-55
2023/07/07 06:30:48;;;;;;;0.40;0.20;;;;;;;21.81;53.24;100613.44;5027384;28;20492;-55
2023/07/07 06:33:16;;;;;;;0.50;0.30;;;;;;;21.81;53.43;100599.91;5025389;28;20522;-55
2023/07/07 06:35:46;;;;;;;0.67;0.57;;;;;;;21.84;53.68;100608.66;5026510;28;20460;-55
2023/07/07 06:38:12;;;;;;;0.80;0.80;;;;;;;21.96;53.43;100606.06;5032065;28;20483;-55
2023/07/07 06:40:39;;;;;;;0.50;0.20;;;;;;;21.91;52.72;100608.22;5023407;28;20496;-55
2023/07/07 06:43:05;;;;;;;0.50;0.20;;;;;;;22.24;53.57;100605.00;5031117;28;20455;-54
2023/07/07 06:45:34;;;;;;;0.40;0.20;;;;;;;22.08;53.52;100607.94;5023508;28;20499;-55
2023/07/07 06:48:02;;;;;;;0.50;0.20;;;;;;;22.13;52.63;100611.16;5027689;28;21060;-55
2023/07/07 06:50:33;;;;;;;0.40;0.20;;;;;;;22.31;52.01;100608.97;5022085;28;20514;-55
2023/07/07 06:53:00;;;;;;;0.50;0.20;;;;;;;22.46;51.44;100611.44;5026806;28;20495;-55
2023/07/07 06:55:28;;;;;;;0.47;0.20;;;;;;;22.92;51.01;100616.22;5024883;28;20578;-55
2023/07/07 06:57:55;;;;;;;0.50;0.20;;;;;;;22.83;50.91;100606.03;5027622;28;20554;-54
2023/07/07 07:00:22;;;;;;;0.50;0.30;;;;;;;22.70;51.07;100605.19;5021950;28;20483;-55
2023/07/07 07:02:48;;;;;;;0.50;0.20;;;;;;;22.84;50.85;100609.63;5026446;28;20502;-55
2023/07/07 07:05:15;;;;;;;0.50;0.20;;;;;;;23.17;50.55;100603.53;5028229;28;20474;-55
2023/07/07 07:07:41;;;;;;;0.50;0.20;;;;;;;23.49;50.35;100610.03;5024508;28;20468;-55
2023/07/07 07:10:10;;;;;;;0.50;0.20;;;;;;;23.35;49.26;100602.97;5026615;28;20546;-56
2023/07/07 07:12:36;;;;;;;0.40;0.20;;;;;;;23.01;49.93;100615.50;5030981;28;20492;-54
2023/07/07 07:15:03;;;;;;;0.40;0.20;;;;;;;23.40;49.99;100616.19;5023818;28;20830;-55
2023/07/07 07:17:30;;;;;;;0.50;0.33;;;;;;;23.31;48.58;100611.47;5030055;28;20836;-55
2023/07/07 07:20:00;;;;;;;0.50;0.20;;;;;;;23.50;50.04;100614.50;5021534;28;20511;-55
2023/07/07 07:22:26;;;;;;;0.50;0.20;;;;;;;23.32;50.52;100619.50;5025860;28;20472;-54
2023/07/07 07:24:53;;;;;;;0.50;0.20;;;;;;;23.54;49.55;100617.81;5028328;28;20518;-54
2023/07/07 07:27:19;;;;;;;0.50;0.20;;;;;;;23.45;49.62;100622.13;5027060;28;20558;-55
2023/07/07 07:29:46;;;;;;;0.50;0.20;;;;;;;23.53;49.08;100618.81;5027517;28;20488;-55
2023/07/07 07:32:12;;;;;;;0.50;0.20;;;;;;;23.84;48.71;100618.16;5021710;28;20469;-54
2023/07/07 07:34:39;;;;;;;0.40;0.20;;;;;;;24.05;48.01;100617.47;5030159;28;20557;-55
2023/07/07 07:37:07;;;;;;;0.50;0.20;;;;;;;24.21;47.18;100613.41;5026401;28;20467;-54
2023/07/07 07:39:34;;;;;;;0.50;0.30;;;;;;;24.66;45.78;100612.53;5028657;28;20488;-54
2023/07/07 07:42:00;;;;;;;0.40;0.20;;;;;;;24.40;46.33;100611.97;5024056;28;21198;-55
2023/07/07 07:44:27;;;;;;;0.50;0.20;;;;;;;24.36;46.61;100608.63;5027544;28;20474;-55
2023/07/07 07:46:56;;;;;;;0.50;0.20;;;;;;;24.35;45.94;100608.75;5021828;28;20463;-56
2023/07/07 07:49:24;;;;;;;0.50;0.20;;;;;;;24.39;47.31;100618.38;5026432;28;20533;-55
2023/07/07 07:51:51;;;;;;;0.50;0.20;;;;;;;24.73;46.65;100605.63;5020664;28;20465;-55
2023/07/07 07:54:19;;;;;;;0.50;0.20;;;;;;;24.63;46.89;100604.63;5025228;28;20491;-55
2023/07/07 07:56:46;;;;;;;0.50;0.23;;;;;;;24.68;46.28;100594.28;5027282;28;20468;-55
2023/07/07 07:59:13;;;;;;;0.50;0.20;;;;;;;25.06;46.02;100597.38;5023738;28;20551;-55
2023/07/07 08:01:40;;;;;;;0.50;0.40;;;;;;;25.51;44.62;100601.78;5028272;28;20457;-55
2023/07/07 08:04:07;;;;;;;0.50;0.20;;;;;;;25.02;44.89;100600.50;5029807;28;20467;-55
2023/07/07 08:06:34;;;;;;;0.50;0.30;;;;;;;25.02;44.99;100589.63;5024566;28;20483;-55
2023/07/07 08:09:02;;;;;;;0.50;0.20;;;;;;;25.48;44.01;100602.88;5029064;28;20563;-55
2023/07/07 08:11:40;;;;;;;0.50;0.23;;;;;;;25.32;44.39;100594.31;5022793;28;20507;-55
2023/07/07 08:14:17;;;;;;;0.50;0.20;;;;;;;25.90;43.67;100594.75;5027399;28;20502;-55
2023/07/07 08:16:49;;;;;;;0.50;0.20;;;;;;;26.19;43.36;100593.06;5021854;28;20474;-55
2023/07/07 08:19:15;;;;;;;0.50;0.30;;;;;;;25.81;43.52;100588.25;5027567;28;20849;-55
2023/07/07 08:21:46;;;;;;;0.50;0.20;;;;;;;26.09;44.09;100586.69;5023203;28;20471;-55
2023/07/07 08:24:13;;;;;;;0.50;0.30;;;;;;;26.18;42.44;100591.34;5027887;28;20467;-55
2023/07/07 08:26:40;;;;;;;0.50;0.23;;;;;;;26.12;42.67;100580.97;5027217;28;20979;-55
2023/07/07 08:29:07;;;;;;;0.50;0.30;;;;;;;26.46;42.61;100589.75;5028086;28;21257;-52
2023/07/07 08:31:34;;;;;;;0.50;0.23;;;;;;;26.55;41.65;100590.75;5027462;28;20468;-52
2023/07/07 08:34:02;;;;;;;0.50;0.20;;;;;;;27.34;41.82;100588.03;5030539;28;20571;-52
2023/07/07 08:36:29;;;;;;;0.50;0.30;;;;;;;27.10;40.66;100589.31;5028772;28;20473;-52
2023/07/07 08:39:17;;;;;;;0.50;0.20;;;;;;;27.08;39.67;100591.31;5031755;28;20542;-52
2023/07/07 08:41:52;;;;;;;0.50;0.20;;;;;;;27.15;39.45;100595.22;5028309;28;20537;-52
2023/07/07 08:44:22;;;;;;;0.50;0.30;;;;;;;27.10;39.85;100591.19;5014635;28;20473;-52
2023/07/07 08:46:54;;;;;;;0.50;0.20;;;;;;;27.31;39.18;100594.66;5023699;28;20467;-52
2023/07/07 08:49:30;;;;;;;0.50;0.30;;;;;;;27.04;39.33;100597.22;5025370;28;20492;-52
2023/07/07 08:52:04;;;;;;;0.50;0.30;;;;;;;27.26;37.83;100586.00;5028832;28;20518;-52
2023/07/07 08:54:31;;;;;;;0.50;0.30;;;;;;;27.27;39.05;100585.00;5033722;28;20512;-52
2023/07/07 08:57:14;;;;;;;0.50;0.20;;;;;;;27.29;38.19;100576.69;5024731;28;20460;-52
2023/07/07 09:00:02;;;;;;;0.50;0.30;;;;;;;27.54;37.82;100584.25;5028771;28;20485;-52
2023/07/07 09:03:07;;;;;;;0.50;0.23;;;;;;;27.60;37.76;100574.63;5025889;28;20475;-52
2023/07/07 09:05:55;;;;;;;0.50;0.30;;;;;;;28.23;36.92;100581.22;5008885;28;20476;-52
2023/07/07 09:08:27;;;;;;;0.50;0.20;;;;;;;27.96;37.10;100579.34;5028656;28;20480;-52
2023/07/07 09:11:17;;;;;;;0.50;0.30;;;;;;;28.06;36.55;100572.97;5026760;28;20490;-52
2023/07/07 09:13:46;;;;;;;0.50;0.30;;;;;;;27.97;34.58;100572.88;5029015;28;20525;-52
2023/07/07 09:16:35;;;;;;;0.50;0.30;;;;;;;27.67;32.31;100553.94;5030449;28;20907;-52
2023/07/07 09:19:09;;;;;;;0.50;0.30;;;;;;;27.68;32.46;100564.72;5027603;28;20479;-52
2023/07/07 09:21:50;;;;;;;0.50;0.30;;;;;;;27.73;33.33;100567.03;5027810;28;20546;-52
2023/07/07 09:24:26;;;;;;;0.40;0.20;;;;;;;27.75;33.37;100567.72;5023855;28;20836;-52
2023/07/07 09:27:00;;;;;;;0.50;0.23;;;;;;;27.59;32.97;100560.13;5028544;28;20438;-52
2023/07/07 09:29:30;;;;;;;0.50;0.27;;;;;;;27.65;33.20;100564.16;5029138;28;20524;-52
2023/07/07 09:32:01;;;;;;;0.50;0.30;;;;;;;27.66;34.03;100557.69;5026841;28;20465;-52
2023/07/07 09:34:28;;;;;;;0.50;0.20;;;;;;;28.13;33.74;100563.16;5028215;28;20550;-52
2023/07/07 09:37:31;;;;;;;0.50;0.30;;;;;;;28.26;33.36;100559.09;5024796;28;20464;-52
2023/07/07 09:40:18;;;;;;;0.50;0.30;;;;;;;28.11;32.52;100562.47;5023830;28;20491;-52
2023/07/07 09:43:17;;;;;;;0.50;0.30;;;;;;;28.67;32.11;100553.25;5030560;28;20463;-53
2023/07/07 09:46:07;;;;;;;0.50;0.30;;;;;;;28.15;31.43;100558.41;5010361;28;20563;-52
2023/07/07 09:48:49;;;;;;;0.50;0.30;;;;;;;28.35;31.47;100570.13;5019402;28;20504;-51
2023/07/07 09:51:34;;;;;;;0.50;0.30;;;;;;;28.47;30.70;100552.50;5029281;28;20459;-52
2023/07/07 09:54:01;;;;;;;0.50;0.20;;;;;;;28.59;31.02;100567.69;5014794;28;21040;-52
2023/07/07 09:56:37;;;;;;;0.50;0.30;;;;;;;28.26;32.26;100567.31;5020591;28;20468;-51
2023/07/07 09:59:10;;;;;;;0.50;0.20;;;;;;;28.06;31.61;100557.41;5028721;28;20995;-51
2023/07/07 10:01:41;;;;;;;0.50;0.30;;;;;;;28.55;31.76;100547.16;5025796;28;20823;-52
2023/07/07 10:04:14;;;;;;;0.50;0.30;;;;;;;28.31;31.39;100550.44;5028047;28;20469;-52
2023/07/07 10:06:47;;;;;;;0.50;0.30;;;;;;;28.73;31.50;100548.03;5028027;28;20871;-51
2023/07/07 10:09:15;;;;;;;0.50;0.30;;;;;;;28.71;31.77;100541.00;5029798;28;20976;-52
2023/07/07 10:11:43;;;;;;;0.50;0.30;;;;;;;28.50;31.50;100549.44;5025703;28;20951;-51
2023/07/07 10:14:14;;;;;;;0.50;0.30;;;;;;;28.31;31.28;100544.97;5029426;28;20506;-51
2023/07/07 10:17:03;;;;;;;0.50;0.30;;;;;;;28.25;32.00;100543.69;5017276;28;20469;-52
2023/07/07 10:19:33;;;;;;;0.50;0.30;;;;;;;28.46;30.96;100528.91;5027726;28;20484;-53
2023/07/07 10:22:00;;;;;;;0.50;0.30;;;;;;;29.09;30.61;100529.78;5027826;28;20469;-52
2023/07/07 10:24:28;;;;;;;0.97;0.97;;;;;;;29.22;30.67;100523.03;5026186;28;20463;-52
2023/07/07 10:26:55;;;;;;;0.50;0.30;;;;;;;29.08;30.64;100533.53;5028564;28;20932;-52
2023/07/07 10:29:37;;;;;;;0.50;0.30;;;;;;;28.85;31.70;100532.25;5025036;28;20548;-53
2023/07/07 10:32:04;;;;;;;0.50;0.30;;;;;;;28.89;31.37;100536.41;5027382;28;20434;-52
2023/07/07 10:34:36;;;;;;;0.50;0.23;;;;;;;28.45;31.53;100535.38;5028621;28;20503;-52
2023/07/07 10:37:18;;;;;;;0.50;0.30;;;;;;;28.96;31.17;100523.84;5024924;28;20534;-52
2023/07/07 10:39:50;;;;;;;0.50;0.20;;;;;;;29.27;31.28;100521.53;5028117;28;20920;-52
2023/07/07 10:42:17;;;;;;;0.50;0.30;;;;;;;29.75;30.80;100518.34;5023895;28;20835;-52
2023/07/07 10:44:43;;;;;;;0.50;0.30;;;;;;;29.82;29.61;100518.53;5026739;28;21067;-52
2023/07/07 10:47:10;;;;;;;0.50;0.30;;;;;;;29.94;29.51;100505.41;5028131;28;20443;-52
2023/07/07 10:49:49;;;;;;;0.53;0.53;;;;;;;30.16;29.55;100513.09;5025609;28;20487;-52
2023/07/07 10:52:40;;;;;;;0.50;0.30;;;;;;;29.59;30.09;100517.34;5024323;28;20479;-52
2023/07/07 10:55:17;;;;;;;0.50;0.30;;;;;;;29.27;30.04;100517.94;5028283;28;20497;-52
2023/07/07 10:57:58;;;;;;;0.50;0.30;;;;;;;29.17;30.53;100507.91;5026211;28;20594;-52
2023/07/07 11:00:37;;;;;;;0.50;0.30;;;;;;;29.42;30.71;100500.75;5025797;28;20435;-52
2023/07/07 11:03:50;;;;;;;0.50;0.30;;;;;;;29.62;30.16;100504.19;5022827;28;20463;-52
2023/07/07 11:06:38;;;;;;;0.50;0.30;;;;;;;29.91;29.41;100498.38;5011059;28;20467;-52
2023/07/07 11:09:33;;;;;;;0.50;0.30;;;;;;;29.99;29.00;100498.38;5028858;28;20571;-53
2023/07/07 11:12:11;;;;;;;0.50;0.30;;;;;;;30.06;29.14;100501.38;5023483;28;20523;-52
2023/07/07 11:15:00;;;;;;;0.50;0.27;;;;;;;30.32;27.76;100504.06;5026246;28;20488;-52
2023/07/07 11:17:50;;;;;;;0.50;0.30;;;;;;;30.24;27.95;100491.16;5023577;28;20485;-52
2023/07/07 11:20:41;;;;;;;0.50;0.30;;;;;;;29.93;29.10;100485.34;5026987;28;20981;-52
2023/07/07 11:23:41;;;;;;;0.50;0.30;;;;;;;29.90;28.70;100485.69;5018703;28;21063;-52
2023/07/07 11:26:25;;;;;;;0.50;0.30;;;;;;;30.02;29.32;100480.78;5025802;28;20489;-52
2023/07/07 11:29:25;;;;;;;0.50;0.20;;;;;;;29.85;29.06;100487.19;5025297;28;20499;-52
2023/07/07 11:32:14;;;;;;;0.50;0.30;;;;;;;29.24;29.50;100477.19;5019908;28;20831;-52
2023/07/07 11:34:49;;;;;;;0.50;0.30;;;;;;;29.96;28.61;100482.28;5027712;28;20497;-52
2023/07/07 11:37:16;;;;;;;0.50;0.30;;;;;;;29.43;28.21;100483.31;5021993;28;20460;-52
2023/07/07 11:39:54;;;;;;;0.50;0.30;;;;;;;29.98;28.03;100471.13;5026828;28;20498;-52
2023/07/07 11:42:42;;;;;;;0.50;0.30;;;;;;;29.75;28.72;100474.47;5028643;28;20555;-54